createdAt,value
2018-05-09T00:00:07.568Z,50.30
2018-05-09T00:01:07.552Z,50.20
2018-05-09T00:02:07.545Z,50.20
2018-05-09T00:03:07.532Z,50.49
2018-05-09T00:04:07.544Z,50.78
2018-05-09T00:05:07.531Z,50.59
2018-05-09T00:06:07.502Z,50.49
2018-05-09T00:07:07.491Z,50.59
2018-05-09T00:08:07.483Z,50.87
2018-05-09T00:09:07.472Z,50.97
2018-05-09T00:10:07.476Z,51.84
2018-05-09T00:11:07.447Z,52.22
2018-05-09T00:12:07.434Z,53.35
2018-05-09T00:13:07.429Z,53.06
2018-05-09T00:14:07.432Z,52.97
2018-05-09T00:15:07.425Z,53.25
2018-05-09T00:16:07.398Z,54.22
2018-05-09T00:17:07.385Z,54.77
2018-05-09T00:18:07.372Z,55.15
2018-05-09T00:19:07.363Z,56.21
2018-05-09T00:20:07.355Z,56.78
2018-05-09T00:21:07.357Z,56.85
2018-05-09T00:22:07.331Z,57.23
2018-05-09T00:23:07.319Z,57.43
2018-05-09T00:24:07.311Z,57.59
2018-05-09T00:25:07.299Z,58.45
2018-05-09T00:26:07.303Z,58.74
2018-05-09T00:27:07.293Z,58.94
2018-05-09T00:28:07.265Z,59.58
2018-05-09T00:29:07.255Z,59.12
2018-05-09T00:30:07.245Z,59.89
2018-05-09T00:31:07.240Z,59.86
2018-05-09T00:32:07.224Z,59.67
2018-05-09T00:33:07.225Z,60.53
2018-05-09T00:34:07.198Z,60.72
2018-05-09T00:35:07.188Z,61.11
2018-05-09T00:36:07.176Z,61.37
2018-05-09T00:37:07.166Z,62.13
2018-05-09T00:38:07.175Z,62.81
2018-05-09T00:39:07.140Z,63.19
2018-05-09T00:40:07.131Z,63.48
2018-05-09T00:41:07.118Z,63.86
2018-05-09T00:42:07.114Z,63.57
2018-05-09T00:43:07.104Z,62.23
2018-05-09T00:44:07.098Z,61.75
2018-05-09T00:45:07.071Z,61.11
2018-05-09T00:46:07.059Z,61.21
2018-05-09T00:47:07.049Z,61.11
2018-05-09T00:48:07.037Z,61.21
2018-05-09T00:49:07.037Z,61.98
2018-05-09T00:50:07.076Z,62.36
2018-05-09T00:51:07.005Z,62.33
2018-05-09T00:52:06.988Z,63.38
2018-05-09T00:53:06.990Z,64.53
2018-05-09T00:54:06.963Z,64.12
2018-05-09T00:55:06.955Z,64.89
2018-05-09T00:56:06.941Z,64.50
2018-05-09T00:57:06.944Z,65.08
2018-05-09T00:58:06.916Z,65.52
2018-05-09T00:59:06.917Z,65.84
2018-05-09T01:00:06.891Z,66.19
2018-05-09T01:01:06.884Z,66.67
2018-05-09T01:02:06.869Z,67.05
2018-05-09T01:03:06.856Z,67.44
2018-05-09T01:04:06.844Z,67.44
2018-05-09T01:05:06.849Z,67.15
2018-05-09T01:06:06.821Z,67.54
2018-05-09T01:07:06.808Z,67.72
2018-05-09T01:08:06.795Z,67.15
2018-05-09T01:09:06.780Z,67.54
2018-05-09T01:10:06.773Z,67.82
2018-05-09T01:11:06.770Z,68.01
2018-05-09T01:12:06.745Z,68.87
2018-05-09T01:13:06.733Z,68.84
2018-05-09T01:14:06.718Z,69.42
2018-05-09T01:15:06.725Z,69.03
2018-05-09T01:16:06.695Z,69.13
2018-05-09T01:17:06.683Z,69.32
2018-05-09T01:18:06.673Z,69.80
2018-05-09T01:19:06.655Z,69.23
2018-05-09T01:20:06.662Z,69.13
2018-05-09T01:21:06.634Z,69.89
2018-05-09T01:22:06.636Z,69.70
2018-05-09T01:23:06.605Z,70.18
2018-05-09T01:24:06.595Z,69.99
2018-05-09T01:25:06.583Z,69.80
2018-05-09T01:26:06.574Z,69.86
2018-05-09T01:28:38.587Z,70.47
2018-05-09T01:29:38.561Z,70.76
2018-05-09T01:30:38.545Z,71.01
2018-05-09T01:31:38.537Z,70.72
2018-05-09T01:32:38.541Z,70.72
2018-05-09T01:33:38.509Z,70.81
2018-05-09T01:34:38.501Z,71.68
2018-05-09T01:35:38.486Z,71.48
2018-05-09T01:36:38.476Z,71.48
2018-05-09T01:37:38.461Z,71.39
2018-05-09T01:38:38.466Z,71.39
2018-05-09T01:39:38.438Z,71.87
2018-05-09T01:40:38.427Z,71.87
2018-05-09T01:41:38.411Z,71.58
2018-05-09T01:42:38.399Z,71.48
2018-05-09T01:43:38.384Z,72.06
2018-05-09T01:44:38.391Z,73.11
2018-05-09T01:45:39.199Z,72.92
2018-05-09T01:46:38.348Z,73.21
2018-05-09T01:47:38.338Z,73.50
2018-05-09T01:48:38.340Z,73.79
2018-05-09T01:49:38.332Z,73.30
2018-05-09T01:50:38.294Z,73.69
2018-05-09T01:51:38.286Z,73.21
2018-05-09T01:52:38.274Z,73.40
2018-05-09T01:53:38.259Z,73.50
2018-05-09T01:54:38.246Z,73.21
2018-05-09T01:55:38.248Z,72.54
2018-05-09T01:56:38.222Z,72.34
2018-05-09T01:57:38.211Z,72.63
2018-05-09T01:58:38.214Z,72.34
2018-05-09T01:59:38.186Z,73.11
2018-05-09T02:00:38.172Z,73.50
2018-05-09T02:01:38.158Z,73.21
2018-05-09T02:02:38.145Z,73.40
2018-05-09T02:03:38.135Z,73.84
2018-05-09T02:04:38.136Z,73.94
2018-05-09T02:05:38.106Z,74.80
2018-05-09T02:06:38.116Z,74.51
2018-05-09T02:07:38.084Z,74.80
2018-05-09T02:08:38.070Z,74.70
2018-05-09T02:09:38.056Z,74.70
2018-05-09T02:10:38.045Z,74.61
2018-05-09T02:11:38.034Z,74.70
2018-05-09T02:12:38.039Z,75.18
2018-05-09T02:13:38.006Z,74.90
2018-05-09T02:14:37.995Z,74.80
2018-05-09T02:15:37.980Z,75.27
2018-05-09T02:16:37.971Z,76.42
2018-05-09T02:17:38.000Z,77.00
2018-05-09T02:18:37.955Z,76.52
2018-05-09T02:19:37.931Z,77.19
2018-05-09T02:20:37.930Z,76.42
2018-05-09T02:21:37.904Z,76.52
2018-05-09T02:22:37.901Z,76.52
2018-05-09T02:23:37.881Z,76.52
2018-05-09T02:24:37.881Z,77.00
2018-05-09T02:25:37.852Z,77.76
2018-05-09T02:26:37.843Z,78.05
2018-05-09T02:27:37.826Z,78.05
2018-05-09T02:28:37.816Z,77.48
2018-05-09T02:29:37.800Z,77.86
2018-05-09T02:30:37.800Z,77.67
2018-05-09T02:31:37.775Z,77.76
2018-05-09T02:32:37.762Z,77.48
2018-05-09T02:33:37.763Z,77.76
2018-05-09T02:34:37.821Z,77.00
2018-05-09T02:35:37.724Z,76.71
2018-05-09T02:36:37.710Z,76.90
2018-05-09T02:37:37.698Z,77.00
2018-05-09T02:38:37.702Z,76.33
2018-05-09T02:39:37.673Z,76.42
2018-05-09T02:40:37.661Z,76.42
2018-05-09T02:41:37.648Z,76.90
2018-05-09T02:42:37.633Z,77.00
2018-05-09T02:43:37.669Z,77.67
2018-05-09T02:44:37.624Z,77.76
2018-05-09T02:45:37.595Z,78.14
2018-05-09T02:46:37.584Z,76.71
2018-05-09T02:47:37.571Z,77.00
2018-05-09T02:48:37.558Z,77.38
2018-05-09T02:49:37.542Z,76.71
2018-05-09T02:50:37.547Z,75.95
2018-05-09T02:51:37.518Z,76.90
2018-05-09T02:52:37.507Z,76.71
2018-05-09T02:53:37.493Z,76.81
2018-05-09T02:54:37.478Z,76.90
2018-05-09T02:55:37.466Z,76.52
2018-05-09T02:56:37.477Z,76.23
2018-05-09T02:57:37.446Z,76.33
2018-05-09T02:58:37.427Z,76.42
2018-05-09T02:59:37.413Z,76.52
2018-05-09T03:00:37.420Z,77.09
2018-05-09T03:01:37.390Z,77.09
2018-05-09T03:02:37.378Z,77.28
2018-05-09T03:03:37.364Z,77.19
2018-05-09T03:04:37.348Z,77.19
2018-05-09T03:05:37.337Z,77.00
2018-05-09T03:06:37.338Z,77.63
2018-05-09T03:07:37.311Z,78.01
2018-05-09T03:08:37.296Z,79.25
2018-05-09T03:09:37.283Z,79.73
2018-05-09T03:10:37.272Z,79.58
2018-05-09T03:11:37.274Z,79.58
2018-05-09T03:12:37.245Z,79.00
2018-05-09T03:13:37.231Z,78.34
2018-05-09T03:14:37.216Z,77.86
2018-05-09T03:15:37.203Z,78.34
2018-05-09T03:16:37.190Z,77.57
2018-05-09T03:17:37.189Z,78.72
2018-05-09T03:18:37.162Z,79.20
2018-05-09T03:19:37.149Z,78.72
2018-05-09T03:20:37.138Z,78.91
2018-05-09T03:21:37.129Z,79.29
2018-05-09T03:22:37.124Z,80.06
2018-05-09T03:23:37.099Z,79.39
2018-05-09T03:24:37.085Z,79.58
2018-05-09T03:25:37.069Z,79.20
2018-05-09T03:26:37.053Z,79.44
2018-05-09T03:27:37.058Z,78.63
2018-05-09T03:28:37.044Z,79.16
2018-05-09T03:29:37.017Z,78.68
2018-05-09T03:30:37.003Z,78.97
2018-05-09T03:31:36.995Z,79.06
2018-05-09T03:32:36.993Z,79.44
2018-05-09T03:33:36.966Z,79.06
2018-05-09T03:34:36.950Z,79.64
2018-05-09T03:35:36.939Z,80.59
2018-05-09T03:36:36.922Z,79.73
2018-05-09T03:37:36.912Z,79.83
2018-05-09T03:38:36.911Z,80.06
2018-05-09T03:39:36.884Z,79.49
2018-05-09T03:40:36.870Z,78.53
2018-05-09T03:41:36.860Z,78.91
2018-05-09T03:42:36.848Z,77.86
2018-05-09T03:43:36.851Z,77.19
2018-05-09T03:44:36.836Z,76.27
2018-05-09T03:45:36.802Z,76.75
2018-05-09T03:46:36.798Z,76.08
2018-05-09T03:47:36.783Z,76.27
2018-05-09T03:48:36.783Z,75.12
2018-05-09T03:49:36.757Z,75.31
2018-05-09T03:50:36.754Z,75.54
2018-05-09T03:51:36.731Z,74.87
2018-05-09T03:52:36.716Z,74.30
2018-05-09T03:53:36.696Z,74.01
2018-05-09T03:54:36.689Z,74.97
2018-05-09T03:55:36.700Z,74.93
2018-05-09T03:56:36.683Z,75.07
2018-05-09T03:57:36.649Z,75.89
2018-05-09T03:58:36.635Z,77.13
2018-05-09T03:59:36.622Z,77.90
2018-05-09T04:00:36.616Z,78.24
2018-05-09T04:01:36.599Z,78.05
2018-05-09T04:02:36.603Z,78.91
2018-05-09T04:03:36.571Z,78.81
2018-05-09T04:04:36.559Z,79.58
2018-05-09T04:05:36.543Z,78.91
2018-05-09T04:06:36.531Z,79.49
2018-05-09T04:07:36.518Z,80.06
2018-05-09T04:08:36.523Z,79.96
2018-05-09T04:09:36.512Z,80.82
2018-05-09T04:10:36.482Z,80.63
2018-05-09T04:11:36.468Z,80.16
2018-05-09T04:12:36.455Z,80.35
2018-05-09T04:13:36.438Z,81.21
2018-05-09T04:14:36.451Z,81.11
2018-05-09T04:15:36.415Z,80.82
2018-05-09T04:16:36.404Z,80.06
2018-05-09T04:17:36.385Z,79.00
2018-05-09T04:18:36.386Z,79.39
2018-05-09T04:19:36.374Z,79.39
2018-05-09T04:20:36.370Z,80.06
2018-05-09T04:21:36.332Z,79.24
2018-05-09T04:22:36.318Z,79.43
2018-05-09T04:23:36.308Z,79.05
2018-05-09T04:24:36.318Z,79.14
2018-05-09T04:25:36.278Z,78.86
2018-05-09T04:26:36.269Z,78.38
2018-05-09T04:27:36.259Z,77.13
2018-05-09T04:28:36.245Z,76.40
2018-05-09T04:29:36.229Z,75.83
2018-05-09T04:30:36.231Z,74.87
2018-05-09T04:31:36.203Z,74.91
2018-05-09T04:32:36.191Z,74.52
2018-05-09T04:33:36.178Z,75.48
2018-05-09T04:34:36.164Z,75.29
2018-05-09T04:35:36.167Z,74.72
2018-05-09T04:36:36.136Z,74.43
2018-05-09T04:37:36.122Z,74.24
2018-05-09T04:38:36.113Z,73.86
2018-05-09T04:39:36.103Z,74.15
2018-05-09T04:40:36.109Z,73.66
2018-05-09T04:41:57.118Z,74.52
2018-05-09T04:42:36.067Z,73.86
2018-05-09T04:43:36.049Z,74.15
2018-05-09T04:44:36.036Z,73.95
2018-05-09T04:45:36.023Z,74.05
2018-05-09T04:46:36.010Z,73.66
2018-05-09T04:47:36.015Z,73.95
2018-05-09T04:48:35.986Z,73.95
2018-05-09T04:49:35.972Z,73.86
2018-05-09T04:50:35.960Z,74.05
2018-05-09T04:51:35.950Z,73.95
2018-05-09T04:52:35.949Z,75.20
2018-05-09T04:53:35.921Z,75.96
2018-05-09T04:54:35.906Z,75.68
2018-05-09T04:55:36.037Z,75.48
2018-05-09T04:56:35.884Z,76.06
2018-05-09T04:57:35.885Z,76.50
2018-05-09T04:58:35.860Z,76.40
2018-05-09T04:59:35.843Z,76.64
2018-05-09T05:00:35.831Z,75.87
2018-05-09T05:01:35.820Z,75.77
2018-05-09T05:02:35.805Z,75.58
2018-05-09T05:03:35.808Z,76.06
2018-05-09T05:04:35.780Z,76.06
2018-05-09T05:05:35.766Z,75.96
2018-05-09T05:06:35.754Z,75.10
2018-05-09T05:07:35.765Z,75.39
2018-05-09T05:08:35.745Z,75.10
2018-05-09T05:09:35.718Z,74.91
2018-05-09T05:10:35.703Z,74.43
2018-05-09T05:11:35.690Z,73.86
2018-05-09T05:12:35.677Z,73.86
2018-05-09T05:13:35.690Z,74.33
2018-05-09T05:14:35.650Z,74.52
2018-05-09T05:15:35.669Z,74.27
2018-05-09T05:16:35.627Z,74.08
2018-05-09T05:17:35.614Z,74.52
2018-05-09T05:18:35.600Z,73.99
2018-05-09T05:19:35.600Z,73.51
2018-05-09T05:20:35.590Z,73.41
2018-05-09T05:21:35.564Z,73.13
2018-05-09T05:22:35.552Z,73.13
2018-05-09T05:23:35.541Z,73.51
2018-05-09T05:24:35.527Z,73.32
2018-05-09T05:25:35.536Z,73.03
2018-05-09T05:26:35.501Z,72.27
2018-05-09T05:27:35.487Z,72.64
2018-05-09T05:28:35.471Z,72.45
2018-05-09T05:29:35.462Z,72.07
2018-05-09T05:30:35.452Z,71.98
2018-05-09T05:31:35.449Z,71.82
2018-05-09T05:32:35.425Z,72.17
2018-05-09T05:33:35.409Z,72.20
2018-05-09T05:34:35.411Z,71.72
2018-05-09T05:35:35.398Z,72.01
2018-05-09T05:36:56.391Z,72.01
2018-05-09T05:37:35.371Z,72.01
2018-05-09T05:38:35.360Z,72.20
2018-05-09T05:39:35.340Z,71.63
2018-05-09T05:40:35.325Z,71.63
2018-05-09T05:41:35.331Z,71.72
2018-05-09T05:42:35.305Z,72.01
2018-05-09T05:43:35.292Z,72.11
2018-05-09T05:44:35.276Z,72.59
2018-05-09T05:45:35.264Z,72.49
2018-05-09T05:46:35.253Z,72.39
2018-05-09T05:47:35.255Z,74.02
2018-05-09T05:48:35.231Z,73.74
2018-05-09T05:49:35.216Z,72.91
2018-05-09T05:50:35.205Z,72.49
2018-05-09T05:51:35.193Z,72.53
2018-05-09T05:52:35.197Z,72.72
2018-05-09T05:53:35.166Z,72.53
2018-05-09T05:54:35.157Z,72.91
2018-05-09T05:55:35.143Z,72.81
2018-05-09T05:56:35.131Z,72.33
2018-05-09T05:57:35.119Z,72.33
2018-05-09T05:58:35.119Z,72.53
2018-05-09T05:59:35.097Z,72.05
2018-05-09T06:00:35.084Z,73.87
2018-05-09T06:01:35.095Z,72.75
2018-05-09T06:02:35.060Z,72.28
2018-05-09T06:03:35.063Z,71.98
2018-05-09T06:04:36.647Z,71.89
2018-05-09T06:05:35.025Z,70.93
2018-05-09T06:06:35.013Z,71.22
2018-05-09T06:07:35.001Z,71.22
2018-05-09T06:08:35.007Z,71.12
2018-05-09T06:09:34.977Z,71.03
2018-05-09T06:10:34.964Z,70.97
2018-05-09T06:11:34.953Z,70.97
2018-05-09T06:12:34.942Z,70.87
2018-05-09T06:13:34.930Z,71.83
2018-05-09T06:14:34.934Z,71.06
2018-05-09T06:15:34.909Z,71.06
2018-05-09T06:16:34.902Z,70.87
2018-05-09T06:17:34.884Z,70.78
2018-05-09T06:18:34.889Z,70.87
2018-05-09T06:19:34.862Z,70.87
2018-05-09T06:20:34.850Z,71.64
2018-05-09T06:21:34.841Z,72.16
2018-05-09T06:22:34.827Z,71.96
2018-05-09T06:23:34.833Z,72.16
2018-05-09T06:24:34.822Z,70.43
2018-05-09T06:25:34.795Z,70.33
2018-05-09T06:26:34.783Z,70.23
2018-05-09T06:27:34.769Z,70.14
2018-05-09T06:28:34.776Z,69.66
2018-05-09T06:29:34.764Z,70.17
2018-05-09T06:30:34.757Z,69.69
2018-05-09T06:31:34.720Z,69.89
2018-05-09T06:32:34.746Z,69.02
2018-05-09T06:33:34.719Z,69.21
2018-05-09T06:34:34.695Z,69.02
2018-05-09T06:35:34.682Z,69.40
2018-05-09T06:36:34.671Z,69.31
2018-05-09T06:37:34.741Z,69.69
2018-05-09T06:38:34.646Z,68.92
2018-05-09T06:39:34.657Z,69.12
2018-05-09T06:40:34.629Z,69.06
2018-05-09T06:41:34.623Z,68.96
2018-05-09T06:42:34.610Z,68.19
2018-05-09T06:43:34.592Z,67.71
2018-05-09T06:44:34.581Z,66.74
2018-05-09T06:45:34.584Z,67.51
2018-05-09T06:46:34.560Z,67.42
2018-05-09T06:47:34.543Z,65.59
2018-05-09T06:48:34.535Z,65.30
2018-05-09T06:49:34.524Z,64.43
2018-05-09T06:50:34.510Z,64.34
2018-05-09T06:51:34.519Z,63.86
2018-05-09T06:52:34.491Z,63.38
2018-05-09T06:53:34.481Z,63.67
2018-05-09T06:54:34.461Z,63.28
2018-05-09T06:55:34.458Z,63.18
2018-05-09T06:56:34.455Z,63.79
2018-05-09T06:57:34.427Z,63.51
2018-05-09T06:58:34.421Z,63.41
2018-05-09T06:59:34.408Z,63.60
2018-05-09T07:00:34.399Z,62.45
2018-05-09T07:01:34.407Z,62.26
2018-05-09T07:02:34.377Z,62.06
2018-05-09T07:03:34.369Z,61.80
2018-05-09T07:04:34.355Z,62.00
2018-05-09T07:05:34.348Z,59.97
2018-05-09T07:06:34.465Z,61.04
2018-05-09T07:07:34.353Z,61.04
2018-05-09T07:08:34.314Z,61.32
2018-05-09T07:09:34.298Z,61.32
2018-05-09T07:10:34.289Z,61.42
2018-05-09T07:11:34.277Z,60.94
2018-05-09T07:12:34.327Z,60.46
2018-05-09T07:13:34.277Z,60.46
2018-05-09T07:14:34.246Z,60.84
2018-05-09T07:15:34.242Z,60.65
2018-05-09T07:16:34.229Z,60.87
2018-05-09T07:17:34.210Z,60.77
2018-05-09T07:18:34.222Z,60.30
2018-05-09T07:19:34.193Z,60.10
2018-05-09T07:20:34.181Z,59.52
2018-05-09T07:21:34.172Z,59.62
2018-05-09T07:22:34.158Z,59.04
2018-05-09T07:23:34.149Z,58.95
2018-05-09T07:24:34.161Z,59.33
2018-05-09T07:25:34.127Z,59.04
2018-05-09T07:26:34.117Z,59.62
2018-05-09T07:27:34.106Z,59.14
2018-05-09T07:28:34.097Z,58.37
2018-05-09T07:29:34.084Z,58.47
2018-05-09T07:30:34.089Z,59.04
2018-05-09T07:31:34.065Z,58.56
2018-05-09T07:32:34.055Z,57.40
2018-05-09T07:33:34.042Z,57.43
2018-05-09T07:34:34.056Z,57.53
2018-05-09T07:35:34.068Z,57.14
2018-05-09T07:36:34.028Z,57.72
2018-05-09T07:37:33.998Z,57.14
2018-05-09T07:38:33.993Z,56.37
2018-05-09T07:39:33.983Z,56.76
2018-05-09T07:40:33.975Z,57.43
2018-05-09T07:41:33.959Z,57.62
2018-05-09T07:42:33.963Z,57.34
2018-05-09T07:43:33.937Z,57.82
2018-05-09T07:44:33.927Z,57.46
2018-05-09T07:45:33.916Z,57.43
2018-05-09T07:46:33.909Z,57.65
2018-05-09T07:47:33.959Z,57.46
2018-05-09T07:48:33.885Z,57.17
2018-05-09T07:49:33.876Z,56.49
2018-05-09T07:50:33.865Z,56.01
2018-05-09T07:51:33.857Z,55.92
2018-05-09T07:52:33.862Z,56.04
2018-05-09T07:53:33.841Z,55.66
2018-05-09T07:54:33.822Z,54.98
2018-05-09T07:55:33.898Z,54.69
2018-05-09T07:56:33.806Z,53.92
2018-05-09T07:57:33.797Z,53.92
2018-05-09T07:58:33.805Z,54.02
2018-05-09T07:59:33.773Z,54.05
2018-05-09T08:00:33.770Z,54.05
2018-05-09T08:01:33.752Z,53.95
2018-05-09T08:02:33.747Z,52.57
2018-05-09T08:03:33.740Z,52.76
2018-05-09T08:04:33.745Z,53.27
2018-05-09T08:05:33.717Z,53.27
2018-05-09T08:06:33.708Z,53.17
2018-05-09T08:07:33.701Z,54.14
2018-05-09T08:08:33.691Z,53.47
2018-05-09T08:09:33.725Z,52.98
2018-05-09T08:10:33.671Z,52.98
2018-05-09T08:11:33.661Z,54.72
2018-05-09T08:12:33.657Z,54.24
2018-05-09T08:13:33.644Z,54.14
2018-05-09T08:14:33.643Z,53.88
2018-05-09T08:15:33.628Z,54.94
2018-05-09T08:16:33.623Z,54.07
2018-05-09T08:17:33.602Z,53.49
2018-05-09T08:18:33.595Z,53.59
2018-05-09T08:19:33.606Z,53.49
2018-05-09T08:20:33.575Z,53.78
2018-05-09T08:21:33.565Z,54.77
2018-05-09T08:22:33.555Z,55.35
2018-05-09T08:23:33.552Z,54.00
2018-05-09T08:24:33.545Z,52.07
2018-05-09T08:25:33.546Z,51.13
2018-05-09T08:26:33.929Z,50.81
2018-05-09T08:27:33.513Z,51.51
2018-05-09T08:28:33.501Z,50.91
2018-05-09T08:29:33.492Z,51.29
2018-05-09T08:30:33.481Z,51.78
2018-05-09T08:31:33.474Z,51.68
2018-05-09T08:32:33.481Z,50.81
2018-05-09T08:33:33.454Z,50.35
2018-05-09T08:34:33.629Z,49.85
2018-05-09T08:35:33.438Z,50.04
2018-05-09T08:36:33.488Z,50.33
2018-05-09T08:37:33.427Z,50.13
2018-05-09T08:38:33.425Z,50.35
2018-05-09T08:39:33.405Z,49.58
2018-05-09T08:40:33.392Z,49.68
2018-05-09T08:41:33.407Z,49.95
2018-05-09T08:42:33.411Z,50.43
2018-05-09T08:43:33.388Z,50.74
2018-05-09T08:44:33.356Z,50.26
2018-05-09T08:45:33.349Z,51.15
2018-05-09T08:46:33.337Z,50.12
2018-05-09T08:47:33.328Z,49.63
2018-05-09T08:48:33.321Z,48.18
2018-05-09T08:49:33.330Z,47.62
2018-05-09T08:50:33.301Z,47.81
2018-05-09T08:51:33.297Z,47.62
2018-05-09T08:52:33.288Z,47.45
2018-05-09T08:53:33.277Z,46.29
2018-05-09T08:54:33.269Z,46.77
2018-05-09T08:55:33.377Z,45.44
2018-05-09T08:56:33.251Z,45.73
2018-05-09T08:57:33.245Z,45.54
2018-05-09T08:58:33.231Z,45.37
2018-05-09T08:59:33.225Z,44.54
2018-05-09T09:00:33.222Z,43.54
2018-05-09T09:01:33.224Z,44.03
2018-05-09T09:02:33.196Z,44.42
2018-05-09T09:03:33.203Z,43.27
2018-05-09T09:04:33.199Z,43.86
2018-05-09T09:05:33.177Z,42.05
2018-05-09T09:06:33.196Z,41.55
2018-05-09T09:07:33.165Z,41.74
2018-05-09T09:08:33.152Z,42.05
2018-05-09T09:09:33.145Z,41.20
2018-05-09T09:10:33.151Z,39.59
2018-05-09T09:11:33.128Z,39.96
2018-05-09T09:12:33.122Z,40.72
2018-05-09T09:13:33.113Z,39.96
2018-05-09T09:14:33.103Z,39.69
2018-05-09T09:15:33.166Z,39.31
2018-05-09T09:16:33.101Z,39.34
2018-05-09T09:17:33.092Z,38.18
2018-05-09T09:18:33.154Z,37.91
2018-05-09T09:19:33.062Z,36.68
2018-05-09T09:20:33.058Z,35.90
2018-05-09T09:21:33.065Z,36.52
2018-05-09T09:22:33.047Z,35.85
2018-05-09T09:23:33.033Z,34.70
2018-05-09T09:24:33.029Z,32.81
2018-05-09T09:25:33.023Z,35.10
2018-05-09T09:26:33.036Z,36.08
2018-05-09T09:27:33.010Z,36.14
2018-05-09T09:28:33.017Z,36.67
2018-05-09T09:29:32.999Z,38.24
2018-05-09T09:30:32.994Z,37.39
2018-05-09T09:31:32.986Z,38.10
2018-05-09T09:32:33.001Z,36.29
2018-05-09T09:33:32.985Z,36.65
2018-05-09T09:34:32.975Z,36.92
2018-05-09T09:35:32.967Z,36.47
2018-05-09T09:36:32.969Z,35.25
2018-05-09T09:37:32.966Z,35.38
2018-05-09T09:38:32.978Z,37.13
2018-05-09T09:39:32.957Z,35.78
2018-05-09T09:40:32.971Z,34.83
2018-05-09T09:41:32.962Z,34.38
2018-05-09T09:42:32.951Z,35.24
2018-05-09T09:43:32.971Z,34.45
2018-05-09T09:44:32.949Z,33.77
2018-05-09T09:45:32.948Z,33.64
2018-05-09T09:46:32.946Z,32.87
2018-05-09T09:47:32.946Z,33.07
2018-05-09T09:48:32.960Z,33.65
2018-05-09T09:49:32.943Z,34.59
2018-05-09T09:50:33.011Z,35.30
2018-05-09T09:51:32.948Z,35.71
2018-05-09T09:52:32.964Z,33.79
2018-05-09T09:53:32.945Z,32.70
2018-05-09T09:54:32.944Z,33.98
2018-05-09T09:55:32.944Z,35.46
2018-05-09T09:56:32.945Z,33.62
2018-05-09T09:57:32.947Z,34.60
2018-05-09T09:58:32.973Z,32.43
2018-05-09T09:59:32.947Z,31.87
2018-05-09T10:00:32.948Z,31.08
2018-05-09T10:01:32.984Z,32.23
2018-05-09T10:02:32.948Z,32.70
2018-05-09T10:03:32.954Z,33.18
2018-05-09T10:04:32.970Z,34.00
2018-05-09T10:05:32.954Z,32.84
2018-05-09T10:06:32.956Z,31.95
2018-05-09T10:07:32.964Z,33.46
2018-05-09T10:08:32.960Z,34.03
2018-05-09T10:09:32.965Z,35.25
2018-05-09T10:10:32.983Z,36.49
2018-05-09T10:11:32.965Z,37.04
2018-05-09T10:12:32.968Z,38.40
2018-05-09T10:13:32.964Z,38.03
2018-05-09T10:14:32.991Z,37.12
2018-05-09T10:15:32.973Z,35.31
2018-05-09T10:16:32.974Z,34.83
2018-05-09T10:17:32.976Z,34.36
2018-05-09T10:18:32.975Z,33.12
2018-05-09T10:19:32.976Z,31.68
2018-05-09T10:20:32.994Z,31.80
2018-05-09T10:21:32.981Z,32.20
2018-05-09T10:22:32.995Z,31.14
2018-05-09T10:23:32.985Z,30.98
2018-05-09T10:24:32.996Z,31.57
2018-05-09T10:25:33.010Z,31.27
2018-05-09T10:26:32.992Z,31.17
2018-05-09T10:27:32.997Z,30.68
2018-05-09T10:28:32.997Z,31.09
2018-05-09T10:29:33.017Z,30.99
2018-05-09T10:30:33.007Z,30.30
2018-05-09T10:31:33.196Z,30.42
2018-05-09T10:32:33.008Z,31.81
2018-05-09T10:33:33.016Z,30.73
2018-05-09T10:34:33.011Z,28.96
2018-05-09T10:35:33.018Z,29.45
2018-05-09T10:36:33.036Z,29.66
2018-05-09T10:37:33.037Z,29.85
2018-05-09T10:38:33.030Z,31.32
2018-05-09T10:39:33.030Z,30.33
2018-05-09T10:40:33.050Z,29.80
2018-05-09T10:41:33.037Z,29.90
2018-05-09T10:42:33.038Z,30.27
2018-05-09T10:43:33.062Z,30.27
2018-05-09T10:44:33.053Z,27.63
2018-05-09T10:45:33.050Z,28.23
2018-05-09T10:46:33.075Z,28.81
2018-05-09T10:47:33.110Z,28.41
2018-05-09T10:48:33.066Z,30.08
2018-05-09T10:49:33.068Z,28.74
2018-05-09T10:50:33.089Z,28.64
2018-05-09T10:51:33.076Z,28.86
2018-05-09T10:52:33.084Z,28.78
2018-05-09T10:53:33.085Z,27.20
2018-05-09T10:54:33.089Z,27.19
2018-05-09T10:55:33.106Z,27.67
2018-05-09T10:56:33.106Z,27.17
2018-05-09T10:57:33.116Z,26.68
2018-05-09T10:58:33.104Z,26.18
2018-05-09T10:59:33.108Z,26.48
2018-05-09T11:00:33.113Z,26.27
2018-05-09T11:01:33.116Z,26.82
2018-05-09T11:02:33.140Z,28.40
2018-05-09T11:03:33.125Z,29.38
2018-05-09T11:04:33.130Z,27.72
2018-05-09T11:05:33.134Z,28.41
2018-05-09T11:06:33.144Z,28.12
2018-05-09T11:07:33.159Z,26.76
2018-05-09T11:08:33.143Z,25.18
2018-05-09T11:09:33.147Z,26.22
2018-05-09T11:10:33.166Z,26.40
2018-05-09T11:11:33.155Z,27.11
2018-05-09T11:12:33.174Z,28.20
2018-05-09T11:13:33.166Z,25.94
2018-05-09T11:14:33.168Z,25.06
2018-05-09T11:15:33.192Z,26.22
2018-05-09T11:16:33.203Z,26.79
2018-05-09T11:17:33.195Z,26.62
2018-05-09T11:18:33.189Z,26.53
2018-05-09T11:19:33.194Z,26.53
2018-05-09T11:20:33.208Z,25.76
2018-05-09T11:21:33.200Z,25.28
2018-05-09T11:22:33.204Z,23.72
2018-05-09T11:23:33.204Z,24.22
2018-05-09T11:24:33.254Z,23.95
2018-05-09T11:25:33.217Z,23.46
2018-05-09T11:26:33.224Z,24.92
2018-05-09T11:27:33.226Z,23.85
2018-05-09T11:28:33.238Z,23.56
2018-05-09T11:29:33.249Z,24.74
2018-05-09T11:30:33.257Z,25.02
2018-05-09T11:31:33.247Z,23.85
2018-05-09T11:32:33.252Z,23.06
2018-05-09T11:33:33.250Z,22.88
2018-05-09T11:34:33.255Z,22.09
2018-05-09T11:35:33.282Z,22.37
2018-05-09T11:36:33.267Z,23.36
2018-05-09T11:37:33.290Z,23.54
2018-05-09T11:38:33.277Z,22.56
2018-05-09T11:39:33.281Z,23.63
2018-05-09T11:40:33.289Z,23.77
2018-05-09T11:41:33.295Z,26.15
2018-05-09T11:42:54.318Z,27.64
2018-05-09T11:43:33.302Z,28.23
2018-05-09T11:44:33.309Z,28.36
2018-05-09T11:45:33.306Z,27.29
2018-05-09T11:46:33.318Z,27.31
2018-05-09T11:47:33.333Z,26.15
2018-05-09T11:48:33.326Z,26.34
2018-05-09T11:49:33.327Z,26.15
2018-05-09T11:50:33.332Z,25.96
2018-05-09T11:51:33.338Z,25.96
2018-05-09T11:52:33.359Z,26.04
2018-05-09T11:53:33.360Z,25.94
2018-05-09T11:54:33.346Z,26.34
2018-05-09T11:55:33.358Z,26.25
2018-05-09T11:56:33.362Z,26.35
2018-05-09T11:57:33.361Z,26.06
2018-05-09T11:58:33.380Z,26.65
2018-05-09T11:59:33.390Z,25.07
2018-05-09T12:00:33.376Z,25.26
2018-05-09T12:01:33.382Z,24.85
2018-05-09T12:02:33.410Z,25.23
2018-05-09T12:03:33.406Z,25.92
2018-05-09T12:04:33.401Z,26.21
2018-05-09T12:05:33.400Z,26.60
2018-05-09T12:06:33.402Z,26.57
2018-05-09T12:07:33.407Z,27.45
2018-05-09T12:08:33.428Z,27.45
2018-05-09T12:09:33.417Z,26.11
2018-05-09T12:10:33.567Z,26.12
2018-05-09T12:11:33.423Z,25.93
2018-05-09T12:12:33.425Z,25.06
2018-05-09T12:13:33.431Z,26.34
2018-05-09T12:14:33.442Z,27.62
2018-05-09T12:15:33.443Z,26.15
2018-05-09T12:16:33.462Z,27.24
2018-05-09T12:17:33.504Z,28.22
2018-05-09T12:18:33.459Z,29.11
2018-05-09T12:19:33.458Z,27.84
2018-05-09T12:20:33.462Z,27.55
2018-05-09T12:21:33.497Z,25.49
2018-05-09T12:22:33.468Z,27.06
2018-05-09T12:23:33.476Z,26.84
2018-05-09T12:24:33.542Z,26.54
2018-05-09T12:25:33.483Z,25.44
2018-05-09T12:26:33.504Z,25.93
2018-05-09T12:27:33.491Z,26.39
2018-05-09T12:28:33.496Z,26.60
2018-05-09T12:29:33.500Z,27.19
2018-05-09T12:30:33.504Z,27.17
2018-05-09T12:31:33.525Z,27.58
2018-05-09T12:32:33.516Z,29.06
2018-05-09T12:33:33.521Z,27.10
2018-05-09T12:34:33.523Z,28.20
2018-05-09T12:35:33.526Z,26.15
2018-05-09T12:36:33.624Z,25.07
2018-05-09T12:37:33.534Z,26.16
2018-05-09T12:38:33.538Z,25.26
2018-05-09T12:39:33.541Z,26.23
2018-05-09T12:40:33.545Z,26.34
2018-05-09T12:41:33.549Z,25.17
2018-05-09T12:42:33.619Z,25.37
2018-05-09T12:43:33.558Z,25.76
2018-05-09T12:44:33.575Z,24.38
2018-05-09T12:45:33.567Z,23.49
2018-05-09T12:46:33.575Z,24.07
2018-05-09T12:47:33.574Z,24.85
2018-05-09T12:48:33.675Z,24.55
2018-05-09T12:49:33.595Z,25.26
2018-05-09T12:50:33.584Z,24.68
2018-05-09T12:51:33.588Z,25.45
2018-05-09T12:52:33.605Z,24.55
2018-05-09T12:53:33.594Z,24.75